Cabarete, Dominican Republic
Current Conditions -  °F | °C
As of 8:00 PM on Wednesday 28 Jan 2015 (Local Time) from MDCY Reporting Station
Thunderstorm Thunderstorm  
Wind Chill: 72°   Ceiling: 1600
Heat Index: 72°   Visibility: 3mi
Dew Point: 72°   Wind: 17mph
Humidity: 100%   Direction: 40°NE
Pressure: 29.94"   Gusts: NA
Location:  19.57°N, 70.02°W
Report Text: MDCY 290000Z 04015KT 5000 TSRA FEW016CB BKN016 22/22 Q1014 CB/NE/N
Loading
Personal Weather Stations






























Interactive Weather Map New forecast layout! Learn more

10-Day Weather Forecast

Advertisements
Track Severe Weather on mobile